Terminal Aerodrome Forecast
Issued by NWS Duluth, MN

Home | Current Version | Previous Version | Text Only | Print | Product List | Glossary On
Versions: 1 2 3 4 5 6 7 8 9 10 11 12 13 14 15 16 17
000
FTUS43 KDLH 240538
TAFINL
TAF
KINL 240538Z 2406/2506 VRB04KT P6SM SKC
     FM242200 16006KT P6SM BKN100
     FM250200 09004KT P6SM -SN OVC035
     FM250300 08004KT 3SM -SN OVC030
     FM250400 08004KT 2SM -SN OVC020=

USA.gov is the U.S. government's official web portal to all federal, state and local government web resources and services.